EDFM

Mannheim City Airport

Mannheim, Germany
METAR EDFM 221750Z 24006KT CAVOK 26/05 Q1012
Observed Flight Rules
Apr-22 @ 17:50 UTC (4 hours ago) Visual Flight Rules
Wind Visibility Clouds
240° at 6 knots 10,000+ meters
  • Clear skies
Temperatures Readings
Current 26°C / 79°F
Dewpoint 5°C / 41°F
Humidity 26%
Altimeter 29.88" Hg
Pressure 1012 hPa
Elevation 100
METAR EDFM 221750Z 24006KT CAVOK 26/05 Q1012
Observed Flight Rules
Apr-22 @ 17:50 UTC
(4 hours ago)
VFR
Wind Visibility
240° at 6 knots 10,000+ meters
Clouds
  • Clear skies
Temperature Dewpoint
26°C / 79°F 5°C / 41°F
Humidity Altimeter Pressure
26% 29.88" Hg 1012 hPa